• Join FlightAware (Why Join?)
  • Login
  • US Flag 
11:00PM EDT


 

Airport Tracker/Info


-or-


 

Live Flight TrackerFlight Track Log ✈ AIE828 ✈ 16-Jun-2013 ✈ CYVP - CYZG

Flight Track Log - Related Links

Times and Time Zones

All times are in EDT time to prevent confusion due to time zone crossing. See the AIE828 flight status page for this flight to view local times or setup timezone preferences in your user account.

Time Position Orientation Groundspeed Altitude Reporting Facility
EDT Latitude Longitude Course Direction KTS MPH feet Rate Location/Type
02:22PM 58.4760 -69.0031 321° Northwest  Level FlightAware Approximate
02:23PM 58.5300 -69.0866 321° Northwest  Level FlightAware Approximate
02:24PM 58.5840 -69.1704 321° Northwest  Level FlightAware Approximate
02:25PM 58.6379 -69.2544 321° Northwest  Level FlightAware Approximate
02:26PM 58.6917 -69.3386 321° Northwest  Level FlightAware Approximate
02:27PM 58.7455 -69.4231 321° Northwest  Level FlightAware Approximate
02:28PM 58.7992 -69.5079 321° Northwest  Level FlightAware Approximate
02:29PM 58.8529 -69.5930 321° Northwest  Level FlightAware Approximate
02:30PM 58.9065 -69.6783 321° Northwest  Level FlightAware Approximate
02:31PM 58.9601 -69.7639 321° Northwest  Level FlightAware Approximate
02:32PM 59.0136 -69.8497 320° Northwest  Level FlightAware Approximate
02:33PM 59.0670 -69.9358 320° Northwest  Level FlightAware Approximate
02:34PM 59.1204 -70.0222 320° Northwest  Level FlightAware Approximate
02:35PM 59.1737 -70.1089 320° Northwest  Level FlightAware Approximate
02:36PM 59.2270 -70.1958 320° Northwest  Level FlightAware Approximate
02:37PM 59.2802 -70.2830 320° Northwest  Level FlightAware Approximate
02:38PM 59.3334 -70.3704 320° Northwest  Level FlightAware Approximate
02:39PM 59.3865 -70.4582 320° Northwest  Level FlightAware Approximate
02:40PM 59.4395 -70.5462 320° Northwest  Level FlightAware Approximate
02:41PM 59.4925 -70.6345 320° Northwest  Level FlightAware Approximate
02:42PM 59.5454 -70.7230 320° Northwest  Level FlightAware Approximate
02:43PM 59.5983 -70.8119 320° Northwest  Level FlightAware Approximate
02:44PM 59.6511 -70.9010 320° Northwest  Level FlightAware Approximate
02:45PM 59.7038 -70.9904 319° Northwest  Level FlightAware Approximate
02:46PM 59.7565 -71.0801 319° Northwest  Level FlightAware Approximate
02:47PM 59.8091 -71.1701 319° Northwest  Level FlightAware Approximate
02:48PM 59.8617 -71.2603 319° Northwest  Level FlightAware Approximate
02:49PM 59.9142 -71.3509 319° Northwest  Level FlightAware Approximate
02:50PM 59.9666 -71.4417 319° Northwest  Level FlightAware Approximate
02:51PM 60.0190 -71.5328 319° Northwest  Level FlightAware Approximate
02:52PM 60.0713 -71.6242 319° Northwest  Level FlightAware Approximate
02:53PM 60.1235 -71.7159 319° Northwest  Level FlightAware Approximate
02:54PM 60.1757 -71.8079 319° Northwest  Level FlightAware Approximate
02:55PM 60.2278 -71.9002 319° Northwest  Level FlightAware Approximate
02:56PM 60.2799 -71.9927 319° Northwest  Level FlightAware Approximate
02:57PM 60.3319 -72.0856 319° Northwest  Level FlightAware Approximate
02:58PM 60.3838 -72.1788 318° Northwest  Level FlightAware Approximate
02:59PM 60.4357 -72.2722 318° Northwest  Level FlightAware Approximate
03:00PM 60.4874 -72.3660 318° Northwest  Level FlightAware Approximate
03:01PM 60.5392 -72.4600 318° Northwest  Level FlightAware Approximate
03:02PM 60.5908 -72.5544 318° Northwest  Level FlightAware Approximate
03:03PM 60.6424 -72.6491 318° Northwest  Level FlightAware Approximate
03:04PM 60.6940 -72.7440 318° Northwest  Level FlightAware Approximate
03:05PM 60.7454 -72.8393 318° Northwest  Level FlightAware Approximate
03:06PM 60.7968 -72.9349 318° Northwest  Level FlightAware Approximate
03:07PM 60.8481 -73.0307 318° Northwest  Level FlightAware Approximate
03:08PM 60.8994 -73.1269 318° Northwest  Level FlightAware Approximate
03:09PM 60.9506 -73.2234 318° Northwest  Level FlightAware Approximate
03:10PM 61.0017 -73.3203 317° Northwest  Level FlightAware Approximate
03:11PM 61.0527 -73.4174 317° Northwest  Level FlightAware Approximate
03:12PM 61.1037 -73.5148 317° Northwest  Level FlightAware Approximate
03:13PM 61.1546 -73.6126 317° Northwest  Level FlightAware Approximate
03:14PM 61.2055 -73.7106 317° Northwest  Level FlightAware Approximate
03:15PM 61.2562 -73.8090 317° Northwest  Level FlightAware Approximate
03:16PM 61.3069 -73.9077 317° Northwest  Level FlightAware Approximate
03:17PM 61.3575 -74.0067 317° Northwest  Level FlightAware Approximate
03:18PM 61.4081 -74.1061 317° Northwest  Level FlightAware Approximate
03:19PM 61.4586 -74.2057 317° Northwest  Level FlightAware Approximate
03:20PM 61.5090 -74.3057 317° Northwest  Level FlightAware Approximate
03:21PM 61.5593 -74.4060 317° Northwest  Level FlightAware Approximate
03:22PM 61.6096 -74.5067 316° Northwest  Level FlightAware Approximate
03:23PM 61.6597 -74.6076 316° Northwest  Level FlightAware Approximate
03:24PM 61.7098 -74.7089 316° Northwest  Level FlightAware Approximate
03:25PM 61.7599 -74.8105 316° Northwest  Level FlightAware Approximate
03:26PM 61.8098 -74.9125 316° Northwest  Level FlightAware Approximate
03:27PM 61.8597 -75.0148 316° Northwest  Level FlightAware Approximate
03:28PM 61.9095 -75.1174 316° Northwest  Level FlightAware Approximate
03:29PM 61.9610 -75.2163 320° Northwest  Level FlightAware Approximate
03:30PM 62.0140 -75.3118 320° Northwest  Level FlightAware Approximate
03:31PM 62.0611 -75.4203 312° West  Level FlightAware Approximate
03:32PM 62.1080 -75.5222 321° Northwest  Level FlightAware Approximate
03:33PM 62.1546 -75.6305 306° West  Level FlightAware Approximate
03:34PM 62.1667 -75.6667 306° West  Level FlightAware Approximate
03:35PM 62.1792 -75.6669 306° West  Level Estimated
03:36PM 62.1792 -75.6669 306° West  Level Estimated
03:37PM 62.1792 -75.6669 306° West  Level Estimated
03:38PM 62.1792 -75.6669 306° West  Level Estimated
03:39PM 62.1792 -75.6669 306° West  Level Estimated
03:40PM 62.1792 -75.6669 306° West  Level Estimated
03:41PM 62.1792 -75.6669 306° West  Level Estimated
03:42PM 62.1792 -75.6669 306° West  Level Estimated
03:43PM 62.1792 -75.6669 306° West  Level Estimated
03:44PM 62.1792 -75.6669 306° West  Level Estimated
03:45PM 62.1792 -75.6669 306° West  Level Estimated
03:46PM 62.1792 -75.6669 306° West  Level Estimated
03:47PM 62.1792 -75.6669 306° West  Level Estimated
03:48PM 62.1792 -75.6669 306° West  Level Estimated
03:49PM 62.1792 -75.6669 306° West  Level Estimated